createdAt,value
2023-03-19T00:02:02.086Z,94791.88
2023-03-19T00:04:33.316Z,94812.22
2023-03-19T00:07:00.633Z,94825.59
2023-03-19T00:09:27.690Z,94831.75
2023-03-19T00:11:54.927Z,94827.22
2023-03-19T00:14:22.066Z,94850.28
2023-03-19T00:16:49.288Z,94866.38
2023-03-19T00:19:16.446Z,94868.81
2023-03-19T00:21:43.550Z,94861.03
2023-03-19T00:24:10.765Z,94850.06
2023-03-19T00:26:37.874Z,94836.22
2023-03-19T00:29:05.734Z,94831.72
2023-03-19T00:31:33.105Z,94833.88
2023-03-19T00:34:00.616Z,94848.31
2023-03-19T00:36:28.508Z,94858.25
2023-03-19T00:38:57.633Z,94850.03
2023-03-19T00:41:25.110Z,94853.00
2023-03-19T00:43:53.122Z,94866.34
2023-03-19T00:46:20.831Z,94889.59
2023-03-19T00:48:51.067Z,94905.91
2023-03-19T00:51:18.213Z,94921.16
2023-03-19T00:53:45.607Z,94929.75
2023-03-19T00:56:13.507Z,94928.47
2023-03-19T00:58:43.977Z,94925.81
2023-03-19T01:01:12.840Z,94947.44
2023-03-19T01:03:40.003Z,94963.75
2023-03-19T01:06:07.522Z,94956.53
2023-03-19T01:08:34.640Z,94961.09
2023-03-19T01:11:05.558Z,94971.78
2023-03-19T01:13:32.734Z,94971.28
2023-03-19T01:15:59.825Z,94994.00
2023-03-19T01:18:27.378Z,94998.00
2023-03-19T01:20:54.430Z,95017.00
2023-03-19T01:23:21.668Z,95013.53
2023-03-19T01:25:48.898Z,95018.06
2023-03-19T01:28:16.287Z,95018.88
2023-03-19T01:30:43.422Z,95016.47
2023-03-19T01:33:14.973Z,95025.03
2023-03-19T01:35:53.217Z,95042.69
2023-03-19T01:38:22.787Z,95037.09
2023-03-19T01:40:50.825Z,95047.78
2023-03-19T01:43:19.321Z,95054.44
2023-03-19T01:46:06.836Z,95072.91
2023-03-19T01:48:54.882Z,95089.75
2023-03-19T01:51:25.469Z,95103.91
2023-03-19T01:54:13.885Z,95115.41
2023-03-19T01:56:57.298Z,95103.91
2023-03-19T01:59:55.051Z,95107.38
2023-03-19T02:02:29.246Z,95121.81
2023-03-19T02:05:00.886Z,95130.63
2023-03-19T02:07:29.406Z,95132.81
2023-03-19T02:09:56.975Z,95136.53
2023-03-19T02:12:24.197Z,95138.16
2023-03-19T02:14:51.432Z,95161.91
2023-03-19T02:17:20.082Z,95144.53
2023-03-19T02:19:57.606Z,95145.34
2023-03-19T02:22:26.976Z,95145.06
2023-03-19T02:24:58.138Z,95150.41
2023-03-19T02:27:25.347Z,95160.03
2023-03-19T02:29:52.508Z,95154.72
2023-03-19T02:32:21.032Z,95181.16
2023-03-19T02:34:48.609Z,95184.91
2023-03-19T02:37:28.334Z,95174.47
2023-03-19T02:40:08.091Z,95176.06
2023-03-19T02:42:35.445Z,95179.53
2023-03-19T02:45:02.611Z,95194.25
2023-03-19T02:47:29.767Z,95191.81
2023-03-19T02:49:56.913Z,95188.31
2023-03-19T02:52:24.041Z,95211.00
2023-03-19T02:57:41.285Z,95221.47
2023-03-19T03:00:09.111Z,95223.84
2023-03-19T03:02:36.639Z,95220.88
2023-03-19T03:05:03.843Z,95224.91
2023-03-19T03:07:31.074Z,95230.50
2023-03-19T03:09:58.470Z,95231.31
2023-03-19T03:12:26.215Z,95246.53
2023-03-19T03:14:53.268Z,95264.91
2023-03-19T03:17:20.406Z,95270.50
2023-03-19T03:19:48.314Z,95277.16
2023-03-19T03:22:15.433Z,95292.91
2023-03-19T03:24:42.659Z,95302.78
2023-03-19T03:27:09.827Z,95325.53
2023-03-19T03:29:37.020Z,95326.59
2023-03-19T03:32:04.148Z,95337.28
2023-03-19T03:34:31.239Z,95329.78
2023-03-19T03:36:58.340Z,95340.47
2023-03-19T03:39:25.374Z,95349.84
2023-03-19T03:41:52.462Z,95365.59
2023-03-19T03:44:19.724Z,95367.19
2023-03-19T03:46:47.015Z,95359.16
2023-03-19T03:49:14.422Z,95376.25
2023-03-19T03:51:42.113Z,95385.88
2023-03-19T03:54:09.273Z,95394.94
2023-03-19T03:56:37.397Z,95413.38
2023-03-19T03:59:04.854Z,95414.94
2023-03-19T04:01:32.394Z,95417.66
2023-03-19T04:03:59.702Z,95430.72
2023-03-19T04:06:27.462Z,95436.31
2023-03-19T04:09:12.504Z,95440.03
2023-03-19T04:11:41.186Z,95456.34
2023-03-19T04:14:08.663Z,95455.19
2023-03-19T04:16:38.178Z,95470.19
2023-03-19T04:19:07.721Z,95469.69
2023-03-19T04:21:34.990Z,95487.31
2023-03-19T04:24:02.287Z,95500.09
2023-03-19T04:26:29.403Z,95511.38
2023-03-19T04:28:57.620Z,95493.44
2023-03-19T04:31:25.279Z,95500.91
2023-03-19T04:33:52.503Z,95484.00
2023-03-19T04:36:19.988Z,95483.50
2023-03-19T04:38:47.950Z,95494.66
2023-03-19T04:41:17.879Z,95498.16
2023-03-19T04:43:58.276Z,95511.81
2023-03-19T04:46:27.312Z,95514.94
2023-03-19T04:48:54.465Z,95521.88
2023-03-19T04:51:21.631Z,95531.44
2023-03-19T04:53:49.325Z,95544.59
2023-03-19T04:56:18.024Z,95565.44
2023-03-19T04:58:45.458Z,95557.69
2023-03-19T05:01:13.034Z,95555.50
2023-03-19T05:03:57.813Z,95557.13
2023-03-19T05:06:27.131Z,95552.81
2023-03-19T05:08:54.847Z,95561.81
2023-03-19T05:11:22.932Z,95597.13
2023-03-19T05:14:00.648Z,95592.09
2023-03-19T05:16:35.663Z,95602.50
2023-03-19T05:19:03.176Z,95606.19
2023-03-19T05:21:32.021Z,95624.31
2023-03-19T05:23:59.149Z,95640.41
2023-03-19T05:26:26.952Z,95644.69
2023-03-19T05:29:16.112Z,95659.69
2023-03-19T05:32:03.299Z,95667.19
2023-03-19T05:34:31.495Z,95679.25
2023-03-19T05:36:58.724Z,95676.81
2023-03-19T05:39:26.204Z,95680.53
2023-03-19T05:41:54.481Z,95696.56
2023-03-19T05:44:27.283Z,95711.78
2023-03-19T05:47:01.896Z,95725.81
2023-03-19T05:49:32.240Z,95764.81
2023-03-19T05:51:59.506Z,95787.03
2023-03-19T05:54:26.984Z,95800.69
2023-03-19T05:57:01.542Z,95803.38
2023-03-19T05:59:42.463Z,95794.53
2023-03-19T06:02:43.071Z,95815.28
2023-03-19T06:05:32.465Z,95815.28
2023-03-19T06:08:07.677Z,95832.94
2023-03-19T06:10:50.559Z,95825.75
2023-03-19T06:13:17.675Z,95845.25
2023-03-19T06:15:53.613Z,95865.63
2023-03-19T06:18:24.869Z,95874.34
2023-03-19T06:20:52.080Z,95886.78
2023-03-19T06:23:19.413Z,95893.94
2023-03-19T06:25:47.068Z,95889.13
2023-03-19T06:28:14.609Z,95864.28
2023-03-19T06:30:44.541Z,95875.63
2023-03-19T06:33:35.117Z,95866.69
2023-03-19T06:36:02.340Z,95866.84
2023-03-19T06:38:32.461Z,95861.91
2023-03-19T06:40:59.561Z,95826.25
2023-03-19T06:43:26.798Z,95804.13
2023-03-19T06:45:54.029Z,95828.94
2023-03-19T06:48:21.247Z,95822.34
2023-03-19T06:50:48.527Z,95794.44
2023-03-19T06:53:15.855Z,95803.28
2023-03-19T06:55:45.522Z,95798.81
2023-03-19T06:58:12.849Z,95802.59
2023-03-19T07:00:39.995Z,95807.19
2023-03-19T07:03:07.568Z,95828.38
2023-03-19T07:05:34.655Z,95821.75
2023-03-19T07:08:02.028Z,95818.50
2023-03-19T07:10:29.115Z,95837.50
2023-03-19T07:12:56.728Z,95824.41
2023-03-19T07:15:23.916Z,95835.16
2023-03-19T07:17:51.041Z,95833.63
2023-03-19T07:20:18.208Z,95837.41
2023-03-19T07:22:45.359Z,95828.91
2023-03-19T07:25:12.552Z,95817.06
2023-03-19T07:27:39.774Z,95828.38
2023-03-19T07:30:07.265Z,95834.25
2023-03-19T07:32:34.404Z,95849.03
2023-03-19T07:35:01.709Z,95859.25
2023-03-19T07:37:29.297Z,95876.63
2023-03-19T07:39:56.374Z,95910.97
2023-03-19T07:42:23.564Z,95940.72
2023-03-19T07:44:50.751Z,95960.31
2023-03-19T07:47:28.534Z,95998.41
2023-03-19T07:49:59.640Z,96033.88
2023-03-19T07:52:26.743Z,96062.56
2023-03-19T07:54:54.150Z,96093.97
2023-03-19T07:57:21.543Z,96132.09
2023-03-19T07:59:48.776Z,96153.53
2023-03-19T08:02:16.136Z,96173.09
2023-03-19T08:04:43.327Z,96194.31
2023-03-19T08:07:14.058Z,96221.66
2023-03-19T08:09:41.293Z,96244.44
2023-03-19T08:12:08.844Z,96272.06
2023-03-19T08:14:36.177Z,96282.78
2023-03-19T08:17:03.342Z,96301.63
2023-03-19T08:19:30.643Z,96338.66
2023-03-19T08:21:57.903Z,96372.28
2023-03-19T08:24:25.121Z,96399.72
2023-03-19T08:26:52.274Z,96416.25
2023-03-19T08:29:19.482Z,96446.56
2023-03-19T08:31:46.784Z,96499.69
2023-03-19T08:34:20.779Z,96540.97
2023-03-19T08:36:48.182Z,96561.09
2023-03-19T08:39:15.687Z,96595.19
2023-03-19T08:41:42.759Z,96601.63
2023-03-19T08:44:09.890Z,96632.19
2023-03-19T08:46:37.116Z,96652.50
2023-03-19T08:49:04.186Z,96657.28
2023-03-19T08:51:31.986Z,96668.09
2023-03-19T08:53:59.066Z,96671.53
2023-03-19T08:56:26.237Z,96687.78
2023-03-19T08:58:53.383Z,96708.63
2023-03-19T09:01:20.561Z,96730.44
2023-03-19T09:03:47.698Z,96748.63
2023-03-19T09:06:15.238Z,96761.22
2023-03-19T09:08:42.758Z,96777.22
2023-03-19T09:11:10.953Z,96792.16
2023-03-19T09:13:38.132Z,96815.59
2023-03-19T09:16:05.885Z,96849.41
2023-03-19T09:18:33.797Z,96891.03
2023-03-19T09:21:01.102Z,96922.63
2023-03-19T09:23:28.443Z,96938.38
2023-03-19T09:25:55.815Z,96963.91
2023-03-19T09:28:23.241Z,96999.34
2023-03-19T09:30:51.421Z,97014.94
2023-03-19T09:33:19.609Z,97038.97
2023-03-19T09:35:52.566Z,97042.91
2023-03-19T09:38:20.534Z,97060.03
2023-03-19T09:40:49.227Z,97081.59
2023-03-19T09:43:16.261Z,97107.66
2023-03-19T09:45:45.309Z,97131.13
2023-03-19T09:48:14.850Z,97152.41
2023-03-19T09:50:42.407Z,97146.94
2023-03-19T09:53:17.981Z,97186.31
2023-03-19T09:55:47.482Z,97223.09
2023-03-19T09:58:17.203Z,97239.91
2023-03-19T10:00:46.736Z,97237.97
2023-03-19T10:03:25.946Z,97244.75
2023-03-19T10:06:11.829Z,97248.81
2023-03-19T10:08:47.827Z,97248.16
2023-03-19T10:11:24.744Z,97270.03
2023-03-19T10:14:00.852Z,97285.31
2023-03-19T10:16:28.977Z,97298.03
2023-03-19T10:18:59.045Z,97319.84
2023-03-19T10:21:34.414Z,97328.28
2023-03-19T10:24:20.562Z,97340.19
2023-03-19T10:26:48.213Z,97367.59
2023-03-19T10:29:18.345Z,97389.19
2023-03-19T10:32:00.889Z,97410.00
2023-03-19T10:34:28.862Z,97432.53
2023-03-19T10:37:06.578Z,97460.94
2023-03-19T10:39:35.059Z,97479.00
2023-03-19T10:42:11.211Z,97483.59
2023-03-19T10:44:52.625Z,97488.22
2023-03-19T10:47:22.877Z,97505.47
2023-03-19T10:49:50.163Z,97504.38
2023-03-19T10:52:17.208Z,97520.41
2023-03-19T10:54:45.494Z,97531.31
2023-03-19T10:57:26.465Z,97529.00
2023-03-19T10:59:53.527Z,97544.59
2023-03-19T11:02:22.685Z,97554.41
2023-03-19T11:05:05.686Z,97566.38
2023-03-19T11:07:33.243Z,97564.25
2023-03-19T11:10:00.292Z,97573.59
2023-03-19T11:12:31.946Z,97586.06
2023-03-19T11:14:59.643Z,97602.00
2023-03-19T11:17:38.227Z,97633.50
2023-03-19T11:20:19.574Z,97625.06
2023-03-19T11:22:47.488Z,97632.38
2023-03-19T11:25:21.233Z,97639.09
2023-03-19T11:27:58.056Z,97632.59
2023-03-19T11:30:28.153Z,97662.97
2023-03-19T11:33:14.106Z,97650.91
2023-03-19T11:35:44.370Z,97647.56
2023-03-19T11:38:26.322Z,97669.59
2023-03-19T11:41:06.518Z,97643.44
2023-03-19T11:43:40.475Z,97655.66
2023-03-19T11:46:07.667Z,97620.16
2023-03-19T11:48:42.711Z,97635.28
2023-03-19T11:51:09.762Z,97654.78
2023-03-19T11:53:36.833Z,97654.59
2023-03-19T11:56:15.475Z,97653.44
2023-03-19T11:58:54.911Z,97614.06
2023-03-19T12:01:37.607Z,97597.59
2023-03-19T12:04:17.065Z,97628.72
2023-03-19T12:06:54.622Z,97656.41
2023-03-19T12:09:40.376Z,97632.72
2023-03-19T12:12:14.809Z,97632.50
2023-03-19T12:14:47.814Z,97636.34
2023-03-19T12:17:30.300Z,97623.00
2023-03-19T12:20:10.414Z,97643.00
2023-03-19T12:22:43.349Z,97646.41
2023-03-19T12:25:30.694Z,97662.00
2023-03-19T12:27:57.770Z,97646.69
2023-03-19T12:30:25.406Z,97610.59
2023-03-19T12:32:54.089Z,97616.63
2023-03-19T12:35:34.729Z,97617.88
2023-03-19T12:38:06.075Z,97618.94
2023-03-19T12:40:37.965Z,97659.19
2023-03-19T12:43:17.085Z,97665.66
2023-03-19T12:45:47.334Z,97633.81
2023-03-19T12:48:21.844Z,97663.22
2023-03-19T12:50:52.468Z,97646.22
2023-03-19T12:53:28.359Z,97647.38
2023-03-19T12:55:58.038Z,97612.38
2023-03-19T12:58:42.645Z,97619.53
2023-03-19T13:01:14.616Z,97601.94
2023-03-19T13:03:53.343Z,97586.72
2023-03-19T13:06:23.458Z,97566.84
2023-03-19T13:08:53.478Z,97542.38
2023-03-19T13:11:33.602Z,97552.91
2023-03-19T13:14:06.134Z,97534.53
2023-03-19T13:16:48.034Z,97509.63
2023-03-19T13:19:28.407Z,97525.84
2023-03-19T13:21:58.830Z,97516.69
2023-03-19T13:24:28.154Z,97500.53
2023-03-19T13:26:56.059Z,97490.13
2023-03-19T13:29:24.636Z,97469.41
2023-03-19T13:31:52.173Z,97453.72
2023-03-19T13:34:31.592Z,97430.19
2023-03-19T13:37:11.028Z,97406.34
2023-03-19T13:39:38.898Z,97413.53
2023-03-19T13:42:06.340Z,97404.47
2023-03-19T13:44:41.411Z,97389.81
2023-03-19T13:47:37.537Z,97390.13
2023-03-19T13:50:19.943Z,97367.00
2023-03-19T13:52:52.437Z,97380.16
2023-03-19T13:55:19.606Z,97389.97
2023-03-19T13:58:01.871Z,97398.22
2023-03-19T14:00:41.245Z,97383.22
2023-03-19T14:03:20.500Z,97379.47
2023-03-19T14:05:48.852Z,97362.28
2023-03-19T14:08:19.910Z,97353.63
2023-03-19T14:10:49.376Z,97345.53
2023-03-19T14:13:28.724Z,97322.81
2023-03-19T14:16:01.080Z,97311.22
2023-03-19T14:18:29.463Z,97333.72
2023-03-19T14:20:57.104Z,97324.50
2023-03-19T14:23:39.547Z,97287.91
2023-03-19T14:26:29.275Z,97275.25
2023-03-19T14:29:05.051Z,97265.72
2023-03-19T14:31:32.694Z,97252.47
2023-03-19T14:34:07.204Z,97261.44
2023-03-19T14:36:36.810Z,97271.81
2023-03-19T14:39:09.272Z,97251.31
2023-03-19T14:41:42.086Z,97229.03
2023-03-19T14:44:09.122Z,97209.53
2023-03-19T14:46:45.337Z,97166.69
2023-03-19T14:49:35.530Z,97129.06
2023-03-19T14:52:21.864Z,97098.03
2023-03-19T14:54:56.013Z,97115.03
2023-03-19T14:57:27.332Z,97096.72
2023-03-19T14:59:54.707Z,97091.59
2023-03-19T15:02:27.574Z,97088.06
2023-03-19T15:04:55.446Z,97091.88
2023-03-19T15:07:30.619Z,97087.50
2023-03-19T15:10:06.082Z,97075.97
2023-03-19T15:12:48.580Z,97092.31
2023-03-19T15:15:23.767Z,97069.28
2023-03-19T15:18:03.554Z,97074.72
2023-03-19T15:20:35.445Z,97084.50
2023-03-19T15:23:11.039Z,97087.38
2023-03-19T15:26:03.305Z,97066.81
2023-03-19T15:28:44.789Z,97070.28
2023-03-19T15:31:31.888Z,97051.50
2023-03-19T15:34:20.641Z,97047.84
2023-03-19T15:36:50.363Z,97060.78
2023-03-19T15:39:19.531Z,97060.66
2023-03-19T15:41:48.734Z,97061.66
2023-03-19T15:44:45.803Z,97063.06
2023-03-19T15:47:17.167Z,97021.16
2023-03-19T15:49:46.719Z,97020.97
2023-03-19T15:52:24.160Z,97009.34
2023-03-19T15:54:52.877Z,97035.69
2023-03-19T15:57:20.841Z,97024.81
2023-03-19T15:59:52.002Z,97034.50
2023-03-19T16:02:48.093Z,97036.88
2023-03-19T16:09:36.687Z,97011.44
2023-03-19T16:12:26.791Z,97043.91
2023-03-19T16:14:53.904Z,97029.81
2023-03-19T16:17:36.138Z,97038.66
2023-03-19T16:20:13.620Z,97034.78
2023-03-19T16:22:43.568Z,97046.06
2023-03-19T16:25:18.986Z,97055.19
2023-03-19T16:27:46.754Z,97068.59
2023-03-19T16:30:26.974Z,97072.00
2023-03-19T16:33:06.593Z,97084.53
2023-03-19T16:35:38.183Z,97094.66
2023-03-19T16:38:08.994Z,97114.22
2023-03-19T16:40:41.879Z,97125.91
2023-03-19T16:43:34.579Z,97157.94
2023-03-19T16:46:14.553Z,97195.31
2023-03-19T16:48:54.346Z,97209.50
2023-03-19T16:51:27.210Z,97231.59
2023-03-19T16:53:55.046Z,97258.38
2023-03-19T16:56:32.173Z,97265.41
2023-03-19T16:59:06.411Z,97279.69
2023-03-19T17:01:33.643Z,97309.66
2023-03-19T17:04:01.577Z,97323.09
2023-03-19T17:06:31.602Z,97341.91
2023-03-19T17:08:58.794Z,97347.50
2023-03-19T17:11:34.053Z,97377.47
2023-03-19T17:14:28.295Z,97410.25
2023-03-19T17:16:59.456Z,97444.41
2023-03-19T17:19:35.332Z,97467.97
2023-03-19T17:22:02.910Z,97480.56
2023-03-19T17:24:36.295Z,97488.63
2023-03-19T17:27:34.940Z,97490.94
2023-03-19T17:32:55.386Z,97501.78
2023-03-19T17:35:42.852Z,97520.81
2023-03-19T17:38:14.924Z,97538.09
2023-03-19T17:40:42.698Z,97552.88
2023-03-19T17:43:11.770Z,97569.19
2023-03-19T17:45:42.547Z,97546.03
2023-03-19T17:48:14.129Z,97577.31
2023-03-19T17:50:42.319Z,97617.41
2023-03-19T17:53:10.999Z,97597.72
2023-03-19T17:55:38.693Z,97636.72
2023-03-19T17:58:06.908Z,97650.41
2023-03-19T18:00:35.785Z,97696.75
2023-03-19T18:03:03.152Z,97727.53
2023-03-19T18:05:30.671Z,97714.47
2023-03-19T18:07:58.423Z,97724.66
2023-03-19T18:10:29.854Z,97752.66
2023-03-19T18:12:59.910Z,97763.75
2023-03-19T18:15:28.014Z,97769.69
2023-03-19T18:17:56.967Z,97765.81
2023-03-19T18:20:25.519Z,97783.09
2023-03-19T18:22:52.609Z,97786.19
2023-03-19T18:25:22.012Z,97793.47
2023-03-19T18:27:49.578Z,97804.19
2023-03-19T18:30:20.533Z,97835.75
2023-03-19T18:32:51.473Z,97838.84
2023-03-19T18:35:24.500Z,97857.38
2023-03-19T18:37:53.889Z,97890.78
2023-03-19T18:40:22.813Z,97905.38
2023-03-19T18:42:49.970Z,97944.53
2023-03-19T18:45:18.996Z,97967.00
2023-03-19T18:47:47.846Z,97991.75
2023-03-19T18:50:19.830Z,98016.19
2023-03-19T18:52:47.929Z,98089.66
2023-03-19T18:55:16.386Z,98122.13
2023-03-19T18:57:52.971Z,98139.59
2023-03-19T19:00:23.513Z,98148.88
2023-03-19T19:02:52.030Z,98153.84
2023-03-19T19:05:23.590Z,98162.72
2023-03-19T19:07:51.284Z,98147.47
2023-03-19T19:10:19.035Z,98153.84
2023-03-19T19:12:48.754Z,98155.06
2023-03-19T19:15:29.883Z,98153.84
2023-03-19T19:17:57.727Z,98141.91
2023-03-19T19:20:27.209Z,98168.09
2023-03-19T19:22:54.334Z,98168.69
2023-03-19T19:25:23.753Z,98169.47
2023-03-19T19:27:57.200Z,98173.63
2023-03-19T19:30:24.492Z,98176.91
2023-03-19T19:32:52.154Z,98189.31
2023-03-19T19:35:19.677Z,98188.44
2023-03-19T19:37:48.467Z,98203.28
2023-03-19T19:40:18.430Z,98213.16
2023-03-19T19:42:45.898Z,98211.91
2023-03-19T19:45:41.635Z,98230.44
2023-03-19T19:48:16.400Z,98221.31
2023-03-19T19:50:44.657Z,98235.16
2023-03-19T19:53:12.699Z,98252.63
2023-03-19T19:55:40.451Z,98260.47
2023-03-19T19:58:16.861Z,98264.00
2023-03-19T20:00:50.311Z,98270.63
2023-03-19T20:03:31.099Z,98275.75
2023-03-19T20:05:59.683Z,98299.69
2023-03-19T20:08:27.232Z,98306.72
2023-03-19T20:10:54.447Z,98317.59
2023-03-19T20:13:26.476Z,98320.03
2023-03-19T20:15:55.832Z,98333.44
2023-03-19T20:18:24.531Z,98351.53
2023-03-19T20:20:51.886Z,98371.72
2023-03-19T20:23:20.793Z,98371.88
2023-03-19T20:25:51.089Z,98392.88
2023-03-19T20:28:21.238Z,98412.28
2023-03-19T20:30:49.486Z,98417.50
2023-03-19T20:33:18.206Z,98423.28
2023-03-19T20:35:46.287Z,98424.53
2023-03-19T20:38:14.107Z,98433.94
2023-03-19T20:40:45.561Z,98440.19
2023-03-19T20:43:29.580Z,98448.22
2023-03-19T20:45:57.699Z,98455.38
2023-03-19T20:48:26.378Z,98480.13
2023-03-19T20:50:54.590Z,98480.78
2023-03-19T20:53:21.887Z,98481.81
2023-03-19T20:55:49.888Z,98519.31
2023-03-19T20:58:25.257Z,98538.84
2023-03-19T21:00:53.671Z,98542.78
2023-03-19T21:03:22.416Z,98581.94
2023-03-19T21:05:51.622Z,98611.78
2023-03-19T21:08:24.417Z,98629.91
2023-03-19T21:10:53.014Z,98650.34
2023-03-19T21:13:21.252Z,98665.94
2023-03-19T21:15:51.891Z,98664.75
2023-03-19T21:18:19.244Z,98667.25
2023-03-19T21:20:47.966Z,98681.56
2023-03-19T21:23:21.338Z,98713.25
2023-03-19T21:25:49.191Z,98728.22
2023-03-19T21:28:20.336Z,98746.97
2023-03-19T21:30:47.479Z,98757.69
2023-03-19T21:33:34.780Z,98778.28
2023-03-19T21:36:02.656Z,98776.78
2023-03-19T21:38:32.308Z,98795.09
2023-03-19T21:41:00.437Z,98805.69
2023-03-19T21:43:41.540Z,98826.38
2023-03-19T21:46:23.552Z,98811.78
2023-03-19T21:48:51.174Z,98830.53
2023-03-19T21:51:18.236Z,98840.06
2023-03-19T21:53:45.710Z,98855.78
2023-03-19T21:56:19.149Z,98864.81
2023-03-19T21:58:46.829Z,98870.19
2023-03-19T22:01:18.258Z,98882.56
2023-03-19T22:03:45.588Z,98882.56
2023-03-19T22:06:13.542Z,98884.22
2023-03-19T22:08:41.642Z,98885.41
2023-03-19T22:11:20.759Z,98905.34
2023-03-19T22:13:48.063Z,98908.69
2023-03-19T22:16:19.826Z,98916.72
2023-03-19T22:18:47.384Z,98913.38
2023-03-19T22:21:16.371Z,98922.06
2023-03-19T22:23:43.918Z,98918.63
2023-03-19T22:26:31.014Z,98925.81
2023-03-19T22:28:59.272Z,98927.38
2023-03-19T22:31:26.810Z,98965.41
2023-03-19T22:33:54.041Z,98987.59
2023-03-19T22:36:21.166Z,98997.97
2023-03-19T22:38:48.942Z,99003.16
2023-03-19T22:41:25.628Z,98999.97
2023-03-19T22:43:53.122Z,98994.00
2023-03-19T22:46:20.975Z,99008.56
2023-03-19T22:48:50.070Z,99042.53
2023-03-19T22:51:18.839Z,99049.56
2023-03-19T22:53:46.155Z,99047.22
2023-03-19T22:56:13.861Z,99054.78
2023-03-19T22:58:41.586Z,99061.19
2023-03-19T23:01:21.279Z,99080.59
2023-03-19T23:03:49.303Z,99095.28
2023-03-19T23:06:29.341Z,99101.47
2023-03-19T23:08:57.783Z,99095.66
2023-03-19T23:11:25.567Z,99097.38
2023-03-19T23:13:54.658Z,99113.25
2023-03-19T23:16:24.684Z,99117.81
2023-03-19T23:18:52.169Z,99121.50
2023-03-19T23:21:19.513Z,99118.13
2023-03-19T23:23:46.860Z,99111.66
2023-03-19T23:26:31.641Z,99114.19
2023-03-19T23:29:01.916Z,99176.22
2023-03-19T23:31:29.276Z,99205.16
2023-03-19T23:33:56.294Z,99210.16
2023-03-19T23:36:23.394Z,99207.50
2023-03-19T23:38:51.701Z,99208.50
2023-03-19T23:41:29.926Z,99210.00
2023-03-19T23:43:59.917Z,99176.13
2023-03-19T23:46:27.737Z,99187.66
2023-03-19T23:48:55.776Z,99202.84
2023-03-19T23:51:23.061Z,99198.81
2023-03-19T23:53:50.094Z,99222.88
2023-03-19T23:56:18.760Z,99237.63
2023-03-19T23:58:46.727Z,99250.00
